Time;durP1;ratioP1;P1;durP2;ratioP2;P2;SDS_P1;SDS_P2;PMS_P1;PMS_P2;Temp;Humidity;BMP_temperature;BMP_pressure;BME280_temperature;BME280_humidity;BME280_pressure;Samples;Min_cycle;Max_cycle;Signal;HPM_P1;HPM_P2
2022/12/10 00:01:13;;;;;;;22.23;14.33;;;5.20;99.90;;;;;;7385530;19;20177;-82
2022/12/10 00:03:39;;;;;;;22.13;14.17;;;5.30;99.90;;;;;;7384902;19;20145;-83
2022/12/10 00:06:08;;;;;;;19.30;13.20;;;5.40;99.90;;;;;;7386137;19;20221;-84
2022/12/10 00:08:34;;;;;;;21.33;13.50;;;5.40;99.90;;;;;;7385479;19;20167;-82
2022/12/10 00:11:03;;;;;;;21.07;12.93;;;5.40;99.90;;;;;;7387941;19;20155;-82
2022/12/10 00:13:30;;;;;;;21.60;13.47;;;5.40;99.90;;;;;;7385227;19;20149;-84
2022/12/10 00:15:58;;;;;;;18.80;12.50;;;5.40;99.90;;;;;;7383698;19;20163;-83
2022/12/10 00:18:24;;;;;;;21.90;13.67;;;5.30;99.90;;;;;;7385138;19;20155;-82
2022/12/10 00:20:51;;;;;;;22.07;13.40;;;5.20;99.90;;;;;;7385207;19;20582;-80
2022/12/10 00:23:17;;;;;;;23.70;13.67;;;5.30;99.90;;;;;;7382772;19;20135;-81
2022/12/10 00:25:42;;;;;;;21.37;13.47;;;5.30;99.90;;;;;;7383495;19;20159;-82
2022/12/10 00:28:08;;;;;;;20.90;13.37;;;5.40;99.90;;;;;;7383671;19;20141;-82
2022/12/10 00:30:34;;;;;;;20.53;12.60;;;5.30;99.90;;;;;;7384564;19;20139;-81
2022/12/10 00:33:00;;;;;;;20.17;12.53;;;5.20;99.90;;;;;;7386164;19;20227;-83
2022/12/10 00:35:26;;;;;;;22.87;14.40;;;5.20;99.90;;;;;;7383101;19;20142;-82
2022/12/10 00:37:51;;;;;;;22.53;14.40;;;5.30;99.90;;;;;;7383976;19;20158;-81
2022/12/10 00:40:17;;;;;;;23.57;13.87;;;5.30;99.90;;;;;;7383261;19;20142;-82
2022/12/10 00:42:43;;;;;;;23.03;14.00;;;5.30;99.90;;;;;;7381798;19;20137;-80
2022/12/10 00:45:09;;;;;;;23.30;13.07;;;5.30;99.90;;;;;;7382222;19;20174;-82
2022/12/10 00:47:35;;;;;;;23.00;13.30;;;5.20;99.90;;;;;;7384131;19;20214;-82
2022/12/10 00:50:02;;;;;;;21.93;12.63;;;5.20;99.90;;;;;;7384325;19;21983;-83
2022/12/10 00:52:28;;;;;;;20.30;12.87;;;5.20;99.90;;;;;;7385116;19;20131;-82
2022/12/10 00:54:53;;;;;;;18.10;12.60;;;5.00;99.90;;;;;;7382799;19;20784;-81
2022/12/10 00:57:19;;;;;;;22.60;13.50;;;4.90;99.90;;;;;;7382961;19;20771;-82
2022/12/10 00:59:45;;;;;;;19.00;12.60;;;5.10;99.90;;;;;;7382701;19;20127;-83
2022/12/10 01:02:11;;;;;;;20.70;13.20;;;5.10;99.90;;;;;;7383726;19;21913;-81
2022/12/10 01:04:36;;;;;;;19.77;13.23;;;5.10;99.90;;;;;;7384006;19;20209;-81
2022/12/10 01:07:02;;;;;;;20.87;12.37;;;5.20;99.90;;;;;;7393654;19;20514;-84
2022/12/10 01:09:30;;;;;;;21.27;13.33;;;5.10;99.90;;;;;;7396400;19;20142;-82
2022/12/10 01:11:59;;;;;;;20.00;12.23;;;5.20;99.90;;;;;;7396134;19;20138;-82
2022/12/10 01:14:28;;;;;;;21.60;13.33;;;5.10;99.90;;;;;;7394535;19;20489;-82
2022/12/10 01:16:56;;;;;;;21.97;13.20;;;5.10;99.90;;;;;;7395406;19;20142;-81
2022/12/10 01:19:22;;;;;;;22.30;13.17;;;5.00;99.90;;;;;;7394131;19;20471;-82
2022/12/10 01:21:55;;;;;;;20.43;12.50;;;5.10;99.90;;;;;;7394120;19;20139;-82
2022/12/10 01:24:22;;;;;;;19.67;12.80;;;5.20;99.90;;;;;;7396722;19;20134;-81
2022/12/10 01:26:48;;;;;;;23.40;13.30;;;5.20;99.90;;;;;;7394045;19;20135;-82
2022/12/10 01:29:14;;;;;;;21.43;13.33;;;5.20;99.90;;;;;;7394320;19;20531;-82
2022/12/10 01:31:40;;;;;;;22.43;11.47;;;5.20;99.90;;;;;;7393874;19;20135;-82
2022/12/10 01:34:09;;;;;;;21.10;13.00;;;5.30;99.90;;;;;;7392725;19;20151;-82
2022/12/10 01:36:37;;;;;;;19.90;12.20;;;5.20;99.90;;;;;;7393038;19;20145;-82
2022/12/10 01:39:05;;;;;;;20.13;12.23;;;5.10;99.90;;;;;;7393046;19;20592;-82
2022/12/10 01:41:38;;;;;;;20.97;12.53;;;5.10;99.90;;;;;;7394198;19;20159;-82
2022/12/10 01:44:25;;;;;;;21.57;12.47;;;5.20;99.90;;;;;;7392655;19;20150;-81
2022/12/10 01:46:53;;;;;;;21.20;11.93;;;5.20;99.90;;;;;;7393406;19;20142;-81
2022/12/10 01:49:32;;;;;;;21.50;12.73;;;5.10;99.90;;;;;;7394034;19;20187;-82
2022/12/10 01:51:58;;;;;;;19.57;12.43;;;5.20;99.90;;;;;;7394547;19;20138;-81
2022/12/10 01:54:31;;;;;;;21.60;12.57;;;5.10;99.90;;;;;;7402744;19;20143;-82
2022/12/10 01:57:07;;;;;;;20.33;11.83;;;5.10;99.90;;;;;;7402709;19;20155;-82
2022/12/10 01:59:34;;;;;;;19.43;12.17;;;5.10;99.90;;;;;;7400691;19;20175;-83
2022/12/10 02:02:12;;;;;;;19.47;12.47;;;5.10;99.90;;;;;;7401222;19;20879;-82
2022/12/10 02:05:09;;;;;;;22.57;12.33;;;5.20;99.90;;;;;;7401079;19;20217;-81
2022/12/10 02:07:50;;;;;;;22.80;11.70;;;5.20;99.90;;;;;;7401375;19;20173;-80
2022/12/10 02:10:43;;;;;;;20.30;12.50;;;5.10;99.90;;;;;;7401106;19;20649;-81
2022/12/10 02:13:15;;;;;;;20.30;11.90;;;5.00;99.90;;;;;;7401461;19;20143;-81
2022/12/10 02:15:57;;;;;;;21.90;12.50;;;5.10;99.90;;;;;;7399554;19;20154;-82
2022/12/10 02:18:49;;;;;;;18.27;12.23;;;5.20;99.90;;;;;;7401389;19;20143;-81
2022/12/10 02:21:29;;;;;;;18.07;11.50;;;4.50;99.90;;;;;;7400811;19;20150;-82
2022/12/10 02:24:02;;;;;;;18.43;11.80;;;4.70;99.90;;;;;;7401426;19;20154;-83
2022/12/10 02:26:46;;;;;;;20.10;12.27;;;5.00;99.90;;;;;;7397361;19;20135;-82
2022/12/10 02:29:20;;;;;;;18.93;12.27;;;4.90;99.90;;;;;;7401707;19;20228;-80
2022/12/10 02:31:52;;;;;;;19.37;11.63;;;5.00;99.90;;;;;;7398139;19;20599;-81
2022/12/10 02:34:19;;;;;;;21.27;12.80;;;5.20;99.90;;;;;;7400601;19;20143;-81
2022/12/10 02:36:48;;;;;;;19.37;11.87;;;5.20;99.90;;;;;;7401295;19;20142;-82
2022/12/10 02:39:18;;;;;;;18.17;12.00;;;5.20;99.90;;;;;;7400126;19;20514;-82
2022/12/10 02:41:51;;;;;;;19.13;12.10;;;5.10;99.90;;;;;;7398864;19;20153;-81
2022/12/10 02:44:19;;;;;;;23.63;11.33;;;5.20;99.90;;;;;;7396468;19;20162;-81
2022/12/10 02:46:49;;;;;;;19.27;12.33;;;5.20;99.90;;;;;;7397594;19;20163;-81
2022/12/10 02:49:17;;;;;;;17.13;11.50;;;5.00;99.90;;;;;;7400526;19;20158;-82
2022/12/10 02:51:43;;;;;;;20.03;12.80;;;5.00;99.90;;;;;;7399497;19;20518;-82
2022/12/10 02:54:37;;;;;;;18.67;11.97;;;5.10;99.90;;;;;;7399320;19;20206;-81
2022/12/10 02:57:45;;;;;;;21.90;13.07;;;5.10;99.90;;;;;;7399867;19;20201;-81
2022/12/10 03:00:18;;;;;;;20.77;12.03;;;5.10;99.90;;;;;;7397857;19;20142;-81
2022/12/10 03:03:08;;;;;;;18.57;12.20;;;5.10;99.90;;;;;;7398701;19;20134;-82
2022/12/10 03:05:47;;;;;;;21.33;11.90;;;5.10;99.90;;;;;;7397301;19;20146;-80
2022/12/10 03:08:34;;;;;;;22.63;12.40;;;5.20;99.90;;;;;;7398585;19;20143;-82
2022/12/10 03:11:15;;;;;;;19.67;11.60;;;5.10;99.90;;;;;;7397492;19;20142;-82
2022/12/10 03:13:59;;;;;;;17.00;11.60;;;5.10;99.90;;;;;;7400631;19;20599;-82
2022/12/10 03:16:30;;;;;;;20.67;12.67;;;5.10;99.90;;;;;;7399693;19;20157;-81
2022/12/10 03:19:02;;;;;;;17.37;11.60;;;5.00;99.90;;;;;;7400425;19;20146;-83
2022/12/10 03:21:32;;;;;;;17.73;11.20;;;5.10;99.90;;;;;;7400170;19;20134;-83
2022/12/10 03:23:58;;;;;;;18.50;11.60;;;5.00;99.90;;;;;;7397443;19;20135;-82
2022/12/10 03:26:26;;;;;;;18.70;12.03;;;5.00;99.90;;;;;;7399717;19;20239;-81
2022/12/10 03:29:00;;;;;;;19.03;10.93;;;5.00;99.90;;;;;;7396878;19;20178;-83
2022/12/10 03:31:27;;;;;;;18.63;11.37;;;5.00;99.90;;;;;;7397065;19;20167;-82
2022/12/10 03:33:54;;;;;;;18.43;11.63;;;5.00;99.90;;;;;;7399029;19;20146;-82
2022/12/10 03:36:21;;;;;;;22.67;11.77;;;5.10;99.90;;;;;;7397029;19;20147;-83
2022/12/10 03:38:47;;;;;;;16.83;11.87;;;5.20;99.90;;;;;;7400629;19;20603;-82
2022/12/10 03:41:12;;;;;;;20.77;12.63;;;5.10;99.90;;;;;;7397980;19;20145;-81
2022/12/10 03:43:55;;;;;;;19.77;12.60;;;5.00;99.90;;;;;;7396871;19;20139;-82
2022/12/10 03:46:27;;;;;;;18.93;11.40;;;5.00;99.90;;;;;;7396105;19;20309;-82
2022/12/10 03:48:53;;;;;;;19.60;11.83;;;5.00;99.90;;;;;;7398169;19;20134;-81
2022/12/10 03:51:20;;;;;;;19.40;11.17;;;4.80;99.90;;;;;;7400414;19;20135;-81
2022/12/10 03:53:48;;;;;;;19.13;11.63;;;5.10;99.90;;;;;;7398307;19;20157;-82
2022/12/10 03:56:16;;;;;;;20.77;12.87;;;4.90;99.90;;;;;;7394455;19;20150;-82
2022/12/10 03:58:42;;;;;;;20.07;12.40;;;4.90;99.90;;;;;;7398561;19;20639;-82
2022/12/10 04:01:08;;;;;;;17.47;11.43;;;5.00;99.90;;;;;;7396422;19;20154;-82
2022/12/10 04:03:39;;;;;;;19.37;11.83;;;4.90;99.90;;;;;;7398397;19;20658;-82
2022/12/10 04:06:07;;;;;;;20.77;13.00;;;5.00;99.90;;;;;;7397637;19;20214;-81
2022/12/10 04:08:33;;;;;;;22.67;13.23;;;5.00;99.90;;;;;;7397927;19;20149;-83
2022/12/10 04:11:04;;;;;;;18.30;11.83;;;4.90;99.90;;;;;;7397877;19;20143;-80
2022/12/10 04:16:28;;;;;;;19.17;11.63;;;4.80;99.90;;;;;;7392905;19;20146;-82
2022/12/10 04:19:09;;;;;;;19.00;11.60;;;4.90;99.90;;;;;;7394267;19;20211;-81
2022/12/10 04:27:12;;;;;;;17.10;11.80;;;5.00;99.90;;;;;;7396562;19;20156;-82
2022/12/10 04:29:39;;;;;;;17.47;11.57;;;4.90;99.90;;;;;;7396027;19;20153;-82
2022/12/10 04:32:06;;;;;;;18.53;11.80;;;5.00;99.90;;;;;;7395000;19;20157;-82
2022/12/10 04:34:31;;;;;;;21.40;12.40;;;5.00;99.90;;;;;;7395730;19;20150;-82
2022/12/10 04:36:58;;;;;;;21.60;12.60;;;5.00;99.90;;;;;;7397096;19;20147;-83
2022/12/10 04:39:25;;;;;;;19.97;12.17;;;5.00;99.90;;;;;;7395907;19;20142;-81
2022/12/10 04:41:51;;;;;;;20.20;12.23;;;5.00;99.90;;;;;;7394265;19;20599;-82
2022/12/10 04:44:17;;;;;;;18.27;11.50;;;5.00;99.90;;;;;;7395523;19;20245;-82
2022/12/10 04:46:43;;;;;;;20.53;12.80;;;4.90;99.90;;;;;;7397080;19;20190;-81
2022/12/10 04:49:10;;;;;;;19.67;12.10;;;5.00;99.90;;;;;;7398222;19;20898;-82
2022/12/10 04:51:36;;;;;;;17.33;11.07;;;5.00;99.90;;;;;;7396540;19;20130;-82
2022/12/10 04:54:02;;;;;;;18.63;12.70;;;5.00;99.90;;;;;;7395234;19;20198;-82
2022/12/10 04:56:28;;;;;;;22.00;12.50;;;5.00;99.90;;;;;;7392274;19;20509;-82
2022/12/10 04:58:58;;;;;;;18.27;11.30;;;5.00;99.90;;;;;;7395941;19;20155;-82
2022/12/10 05:01:24;;;;;;;19.67;11.80;;;4.90;99.90;;;;;;7395087;19;20139;-82
2022/12/10 05:03:51;;;;;;;19.90;12.90;;;4.90;99.90;;;;;;7392603;19;20176;-82
2022/12/10 05:06:18;;;;;;;20.73;12.27;;;4.90;99.90;;;;;;7394354;19;20479;-81
2022/12/10 05:08:44;;;;;;;19.13;11.73;;;5.00;99.90;;;;;;7394457;19;20138;-81
2022/12/10 05:11:13;;;;;;;21.10;12.40;;;5.00;99.90;;;;;;7393925;19;20171;-80
2022/12/10 05:13:39;;;;;;;20.03;12.60;;;5.00;99.90;;;;;;7394516;19;20138;-80
2022/12/10 05:16:07;;;;;;;19.47;12.17;;;5.00;99.90;;;;;;7394641;19;20209;-82
2022/12/10 05:18:34;;;;;;;19.33;11.67;;;5.00;99.90;;;;;;7394314;19;20218;-81
2022/12/10 05:21:06;;;;;;;19.53;12.13;;;4.90;99.90;;;;;;7395929;19;20191;-81
2022/12/10 05:23:35;;;;;;;19.50;13.10;;;4.80;99.90;;;;;;7396509;19;20147;-82
2022/12/10 05:26:11;;;;;;;18.93;11.90;;;4.80;99.90;;;;;;7396265;19;20158;-82
2022/12/10 05:28:39;;;;;;;18.63;11.57;;;4.80;99.90;;;;;;7400182;19;20471;-82
2022/12/10 05:31:11;;;;;;;21.33;12.50;;;4.80;99.90;;;;;;7402448;19;20210;-81
2022/12/10 05:33:36;;;;;;;19.27;11.87;;;4.80;99.90;;;;;;7400667;19;20166;-81
2022/12/10 05:36:04;;;;;;;17.67;11.27;;;4.70;99.90;;;;;;7398381;19;20134;-81
2022/12/10 05:38:32;;;;;;;19.73;12.73;;;4.70;99.90;;;;;;7403058;19;20134;-81
2022/12/10 05:41:06;;;;;;;17.70;11.80;;;4.80;99.90;;;;;;7401781;19;20199;-81
2022/12/10 05:43:32;;;;;;;18.83;12.30;;;4.90;99.90;;;;;;7402157;19;20246;-81
2022/12/10 05:46:03;;;;;;;19.60;12.53;;;4.80;99.90;;;;;;7401115;19;20163;-82
2022/12/10 05:48:29;;;;;;;19.33;12.40;;;4.80;99.90;;;;;;7401701;19;20142;-82
2022/12/10 05:50:58;;;;;;;20.17;12.50;;;4.80;99.90;;;;;;7396074;19;20146;-82
2022/12/10 05:53:24;;;;;;;19.07;12.07;;;4.70;99.90;;;;;;7401820;19;20138;-81
2022/12/10 05:55:58;;;;;;;17.90;11.80;;;4.60;99.90;;;;;;7398937;19;20174;-82
2022/12/10 05:58:24;;;;;;;18.17;11.70;;;4.70;99.90;;;;;;7400082;19;20148;-82
2022/12/10 06:00:50;;;;;;;20.23;11.90;;;4.70;99.90;;;;;;7401232;19;20143;-81
2022/12/10 06:03:15;;;;;;;21.00;12.97;;;4.70;99.90;;;;;;7399901;19;20167;-81
2022/12/10 06:05:41;;;;;;;19.43;12.30;;;4.70;99.90;;;;;;7398858;19;20158;-82
2022/12/10 06:08:07;;;;;;;18.73;11.80;;;4.70;99.90;;;;;;7401318;19;20590;-83
2022/12/10 06:10:36;;;;;;;20.50;13.13;;;4.70;99.90;;;;;;7401043;19;20142;-83
2022/12/10 06:13:03;;;;;;;20.10;12.33;;;4.70;99.90;;;;;;7402896;19;20527;-82
2022/12/10 06:15:29;;;;;;;20.77;12.70;;;4.70;99.90;;;;;;7400758;19;20598;-81
2022/12/10 06:17:55;;;;;;;20.13;11.77;;;4.60;99.90;;;;;;7402461;19;20138;-82
2022/12/10 06:20:22;;;;;;;22.33;12.73;;;4.70;99.90;;;;;;7401863;19;20131;-81
2022/12/10 06:22:48;;;;;;;19.80;12.40;;;4.70;99.90;;;;;;7400124;19;20475;-81
2022/12/10 06:25:14;;;;;;;19.10;11.83;;;4.60;99.90;;;;;;7401318;19;20135;-81
2022/12/10 06:27:40;;;;;;;18.83;11.73;;;4.60;99.90;;;;;;7399674;19;20150;-82
2022/12/10 06:30:06;;;;;;;18.70;12.00;;;4.60;99.90;;;;;;7400537;19;20559;-82
2022/12/10 06:32:32;;;;;;;21.80;12.90;;;4.70;99.90;;;;;;7398442;19;20157;-80
2022/12/10 06:34:58;;;;;;;19.07;12.23;;;4.70;99.90;;;;;;7400742;19;20138;-81
2022/12/10 06:37:24;;;;;;;20.40;12.63;;;4.90;99.90;;;;;;7399487;19;20773;-82
2022/12/10 06:39:52;;;;;;;17.10;11.57;;;4.70;99.90;;;;;;7398969;19;20154;-81
2022/12/10 06:42:18;;;;;;;17.77;12.40;;;4.70;99.90;;;;;;7398766;19;20154;-82
2022/12/10 06:44:44;;;;;;;20.13;12.50;;;4.70;99.90;;;;;;7398581;19;20155;-82
2022/12/10 06:47:10;;;;;;;20.13;11.30;;;4.90;99.90;;;;;;7398472;19;20142;-81
2022/12/10 06:49:36;;;;;;;18.17;11.93;;;4.80;99.90;;;;;;7399149;19;20126;-81
2022/12/10 06:52:02;;;;;;;18.97;12.00;;;4.80;99.90;;;;;;7397592;19;20615;-82
2022/12/10 06:54:29;;;;;;;20.27;12.27;;;4.80;99.90;;;;;;7398747;19;20143;-81
2022/12/10 06:56:55;;;;;;;18.73;11.97;;;4.80;99.90;;;;;;7399423;19;20256;-81
2022/12/10 06:59:21;;;;;;;22.00;13.80;;;4.80;99.90;;;;;;7397442;19;20255;-82
2022/12/10 07:01:47;;;;;;;20.23;12.60;;;4.70;99.90;;;;;;7397552;19;20138;-80
2022/12/10 07:04:13;;;;;;;19.03;12.23;;;4.80;99.90;;;;;;7396268;19;20142;-81
2022/12/10 07:06:39;;;;;;;19.67;11.63;;;4.70;99.90;;;;;;7397531;19;20603;-81
2022/12/10 07:09:05;;;;;;;20.43;12.77;;;4.70;99.90;;;;;;7396863;19;20151;-82
2022/12/10 07:11:31;;;;;;;18.00;11.47;;;4.70;99.90;;;;;;7397727;19;20134;-82
2022/12/10 07:13:58;;;;;;;19.53;12.00;;;4.70;99.90;;;;;;7396795;19;20150;-81
2022/12/10 07:16:27;;;;;;;23.57;12.30;;;4.70;99.90;;;;;;7398179;19;20154;-81
2022/12/10 07:18:54;;;;;;;18.77;11.33;;;4.60;99.90;;;;;;7398480;19;20143;-81
2022/12/10 07:21:33;;;;;;;20.00;12.47;;;4.60;99.90;;;;;;7398116;19;20157;-82
2022/12/10 07:24:05;;;;;;;19.13;10.83;;;4.70;99.90;;;;;;7398186;19;20682;-82
2022/12/10 07:26:34;;;;;;;19.57;12.30;;;4.70;99.90;;;;;;7398559;19;20135;-81
2022/12/10 07:29:01;;;;;;;20.17;12.23;;;4.70;99.90;;;;;;7396662;19;20178;-81
2022/12/10 07:31:27;;;;;;;23.43;12.47;;;4.70;99.90;;;;;;7398535;19;20152;-81
2022/12/10 07:33:54;;;;;;;20.03;12.80;;;4.80;99.90;;;;;;7398961;19;20151;-82
2022/12/10 07:36:22;;;;;;;22.57;13.00;;;4.80;99.90;;;;;;7396477;19;20451;-81
2022/12/10 07:38:49;;;;;;;18.80;11.63;;;4.90;99.90;;;;;;7397044;19;20138;-82
2022/12/10 07:41:17;;;;;;;18.60;11.57;;;4.80;99.90;;;;;;7399601;19;20135;-82
2022/12/10 07:43:44;;;;;;;18.20;11.63;;;4.50;99.90;;;;;;7398487;19;20130;-82
2022/12/10 07:46:13;;;;;;;19.43;12.10;;;4.70;99.90;;;;;;7396840;19;20595;-82
2022/12/10 07:48:40;;;;;;;18.50;12.30;;;4.70;99.90;;;;;;7397009;19;20175;-82
2022/12/10 07:51:07;;;;;;;20.30;12.13;;;4.80;99.90;;;;;;7396711;19;20230;-82
2022/12/10 07:53:33;;;;;;;19.53;12.73;;;4.90;99.90;;;;;;7395660;19;20154;-81
2022/12/10 07:55:59;;;;;;;17.03;11.10;;;4.90;99.90;;;;;;7392486;19;20143;-80
2022/12/10 07:58:25;;;;;;;19.57;12.53;;;5.00;99.90;;;;;;7396346;19;20155;-82
2022/12/10 08:00:51;;;;;;;18.37;12.13;;;5.00;99.90;;;;;;7395515;19;20635;-82
2022/12/10 08:03:17;;;;;;;22.30;13.17;;;5.00;99.90;;;;;;7396153;19;20143;-79
2022/12/10 08:05:45;;;;;;;20.30;12.47;;;5.00;99.90;;;;;;7395536;19;20155;-81
2022/12/10 08:08:11;;;;;;;19.80;12.10;;;4.90;99.90;;;;;;7394201;19;20955;-80
2022/12/10 08:10:38;;;;;;;21.43;12.73;;;4.80;99.90;;;;;;7393442;19;20131;-79
2022/12/10 08:13:05;;;;;;;20.27;12.23;;;4.70;99.90;;;;;;7392996;19;20589;-79
2022/12/10 08:15:31;;;;;;;20.83;12.37;;;4.70;99.90;;;;;;7389795;19;20143;-79
2022/12/10 08:17:58;;;;;;;20.67;13.13;;;4.80;99.90;;;;;;7394481;19;20153;-80
2022/12/10 08:20:24;;;;;;;19.27;12.77;;;4.90;99.90;;;;;;7395261;19;22276;-80
2022/12/10 08:22:51;;;;;;;21.40;12.07;;;5.00;99.90;;;;;;7392629;19;20165;-79
2022/12/10 08:25:17;;;;;;;18.77;12.67;;;4.90;99.90;;;;;;7393635;19;20171;-80
2022/12/10 08:27:43;;;;;;;19.70;13.63;;;4.80;99.90;;;;;;7392932;19;20134;-79
2022/12/10 08:30:09;;;;;;;25.27;13.07;;;4.80;99.90;;;;;;7396084;19;20147;-79
2022/12/10 08:32:35;;;;;;;21.30;13.73;;;4.70;99.90;;;;;;7391299;19;20139;-79
2022/12/10 08:35:00;;;;;;;22.50;13.70;;;4.60;99.90;;;;;;7391327;19;20139;-80
2022/12/10 08:37:26;;;;;;;18.70;13.00;;;4.60;99.90;;;;;;7393767;19;20130;-78
2022/12/10 08:39:52;;;;;;;22.33;13.33;;;4.60;99.90;;;;;;7392286;19;20147;-79
2022/12/10 08:42:19;;;;;;;26.37;15.20;;;4.70;99.90;;;;;;7394979;19;20194;-79
2022/12/10 08:44:45;;;;;;;23.23;16.07;;;4.70;99.90;;;;;;7393666;19;20166;-80
2022/12/10 08:47:11;;;;;;;22.57;13.83;;;4.80;99.90;;;;;;7394254;19;20166;-79
2022/12/10 08:49:37;;;;;;;25.27;15.50;;;4.80;99.90;;;;;;7393056;19;20142;-79
2022/12/10 08:52:03;;;;;;;21.93;13.97;;;4.80;99.90;;;;;;7390153;19;20489;-80
2022/12/10 08:54:29;;;;;;;19.17;12.63;;;4.80;99.90;;;;;;7393111;19;20134;-79
2022/12/10 08:56:54;;;;;;;22.60;13.30;;;4.90;99.90;;;;;;7392270;19;20138;-79
2022/12/10 08:59:20;;;;;;;20.03;13.07;;;4.90;99.90;;;;;;7391308;19;20418;-79
2022/12/10 09:01:46;;;;;;;20.93;13.53;;;4.90;99.90;;;;;;7390485;19;20139;-78
2022/12/10 09:04:12;;;;;;;23.27;13.57;;;4.90;99.90;;;;;;7390342;19;20202;-77
2022/12/10 09:06:38;;;;;;;22.10;14.57;;;4.90;99.90;;;;;;7392325;19;20580;-81
2022/12/10 09:09:04;;;;;;;23.90;14.57;;;5.00;99.90;;;;;;7393785;19;20130;-79
2022/12/10 09:11:32;;;;;;;29.57;16.73;;;5.00;99.90;;;;;;7394084;19;20139;-78
2022/12/10 09:13:59;;;;;;;34.00;19.30;;;4.90;99.90;;;;;;7392113;19;20142;-80
2022/12/10 09:16:33;;;;;;;24.13;15.37;;;4.80;99.90;;;;;;7391519;19;20139;-79
2022/12/10 09:18:59;;;;;;;24.43;14.27;;;4.80;99.90;;;;;;7391079;19;20153;-80
2022/12/10 09:21:27;;;;;;;23.97;14.30;;;4.70;99.90;;;;;;7392721;19;20134;-79
2022/12/10 09:23:53;;;;;;;21.47;13.33;;;4.70;99.90;;;;;;7391016;19;20204;-79
2022/12/10 09:26:19;;;;;;;23.13;13.90;;;4.80;99.90;;;;;;7382986;19;20567;-79
2022/12/10 09:28:46;;;;;;;20.13;13.37;;;4.90;99.90;;;;;;7391800;19;20134;-82
2022/12/10 09:31:13;;;;;;;21.30;13.13;;;4.90;99.90;;;;;;7389934;19;20150;-82
2022/12/10 09:33:40;;;;;;;23.03;14.20;;;4.80;99.90;;;;;;7405807;19;20136;-80
2022/12/10 09:36:08;;;;;;;19.33;12.83;;;4.80;99.90;;;;;;7400889;19;20146;-81
2022/12/10 09:38:35;;;;;;;19.53;12.80;;;4.90;99.90;;;;;;7391511;19;20138;-85
2022/12/10 09:41:03;;;;;;;20.10;12.90;;;5.00;99.90;;;;;;7389649;19;20595;-83
2022/12/10 09:43:31;;;;;;;19.30;12.83;;;5.00;99.90;;;;;;7388261;19;20218;-82
2022/12/10 09:46:14;;;;;;;21.10;13.03;;;5.00;99.90;;;;;;7387423;19;20146;-83
2022/12/10 09:48:52;;;;;;;19.40;12.43;;;4.90;99.90;;;;;;7391139;19;20908;-81
2022/12/10 09:51:21;;;;;;;19.60;13.10;;;4.80;99.90;;;;;;7390185;19;20164;-81
2022/12/10 09:53:49;;;;;;;21.10;13.63;;;4.90;99.90;;;;;;7385705;19;20482;-81
2022/12/10 09:56:25;;;;;;;21.47;13.23;;;4.90;99.90;;;;;;7390904;19;20246;-81
2022/12/10 09:58:51;;;;;;;19.60;12.07;;;4.90;99.90;;;;;;7385192;19;20500;-80
2022/12/10 10:01:22;;;;;;;20.93;13.77;;;4.90;99.90;;;;;;7385836;19;20127;-80
2022/12/10 10:03:48;;;;;;;21.60;13.27;;;5.00;99.90;;;;;;7385899;19;20130;-79
2022/12/10 10:06:15;;;;;;;22.90;13.40;;;5.00;99.90;;;;;;7385968;19;20153;-80
2022/12/10 10:08:52;;;;;;;21.07;13.33;;;5.10;99.90;;;;;;7385947;19;20146;-81
2022/12/10 10:11:21;;;;;;;20.03;12.57;;;5.00;99.90;;;;;;7386753;19;20149;-80
2022/12/10 10:14:20;;;;;;;21.23;13.07;;;5.20;99.90;;;;;;7387931;19;20616;-80
2022/12/10 10:17:17;;;;;;;21.53;12.60;;;5.10;99.90;;;;;;7391529;19;20243;-80
2022/12/10 10:19:44;;;;;;;21.10;13.17;;;5.20;99.90;;;;;;7391398;19;20525;-80
2022/12/10 10:22:11;;;;;;;20.83;12.70;;;5.20;99.90;;;;;;7392346;19;20201;-79
2022/12/10 10:24:45;;;;;;;21.23;13.03;;;5.10;99.90;;;;;;7392521;19;20134;-80
2022/12/10 10:27:16;;;;;;;21.63;12.93;;;5.10;99.90;;;;;;7391529;19;20138;-80
2022/12/10 10:29:44;;;;;;;22.07;14.23;;;5.10;99.90;;;;;;7390677;19;20142;-81
2022/12/10 10:32:17;;;;;;;17.47;11.87;;;5.00;99.90;;;;;;7387979;19;20643;-80
2022/12/10 10:34:44;;;;;;;18.57;12.50;;;5.00;99.90;;;;;;7391707;19;20165;-81
2022/12/10 10:37:30;;;;;;;21.23;12.87;;;4.90;99.90;;;;;;7392037;19;20126;-81
2022/12/10 10:39:57;;;;;;;20.03;12.10;;;4.90;99.90;;;;;;7395236;19;20146;-81
2022/12/10 10:42:41;;;;;;;20.40;12.60;;;4.90;99.90;;;;;;7395349;19;20138;-81
2022/12/10 10:45:30;;;;;;;19.60;13.00;;;5.00;99.90;;;;;;7396282;19;20158;-80
2022/12/10 10:48:14;;;;;;;18.90;12.50;;;5.00;99.90;;;;;;7397368;19;20149;-80
2022/12/10 10:51:11;;;;;;;17.87;11.93;;;5.10;99.90;;;;;;7407227;19;20131;-81
2022/12/10 10:53:46;;;;;;;20.27;13.17;;;5.20;99.90;;;;;;7392753;19;20214;-81
2022/12/10 10:56:22;;;;;;;25.97;13.10;;;5.20;99.90;;;;;;7392874;19;20229;-80
2022/12/10 10:59:19;;;;;;;22.30;14.07;;;5.20;99.90;;;;;;7393601;19;20134;-81
2022/12/10 11:01:52;;;;;;;22.83;12.47;;;5.20;99.90;;;;;;7397107;19;20141;-83
2022/12/10 11:04:29;;;;;;;23.37;13.07;;;5.20;99.90;;;;;;7392813;19;20127;-81
2022/12/10 11:06:59;;;;;;;20.90;13.07;;;5.20;99.90;;;;;;7395600;19;20146;-81
2022/12/10 11:09:29;;;;;;;22.70;13.07;;;5.20;99.90;;;;;;7397972;19;20239;-79
2022/12/10 11:12:00;;;;;;;20.70;12.57;;;5.20;99.90;;;;;;7392524;19;20234;-76
2022/12/10 11:14:54;;;;;;;19.47;12.53;;;5.30;99.90;;;;;;7390559;19;20488;-75
2022/12/10 11:17:23;;;;;;;21.83;13.30;;;5.30;99.90;;;;;;7390333;19;20502;-77
2022/12/10 11:19:58;;;;;;;19.43;12.03;;;5.40;99.90;;;;;;7387833;19;20131;-75
2022/12/10 11:22:33;;;;;;;18.37;12.13;;;5.50;99.90;;;;;;7388944;19;20142;-76
2022/12/10 11:25:00;;;;;;;18.33;11.27;;;5.50;99.90;;;;;;7390155;19;20197;-76
2022/12/10 11:27:53;;;;;;;18.70;11.57;;;5.50;99.90;;;;;;7393150;19;20165;-75
2022/12/10 11:30:25;;;;;;;19.33;12.03;;;5.40;99.90;;;;;;7392499;19;20142;-78
2022/12/10 11:32:56;;;;;;;22.03;12.70;;;5.30;99.90;;;;;;7391376;19;20583;-75
2022/12/10 11:35:47;;;;;;;18.57;11.73;;;5.30;99.90;;;;;;7392710;19;20130;-76
2022/12/10 11:38:29;;;;;;;19.23;11.43;;;5.30;99.90;;;;;;7391293;19;20230;-76
2022/12/10 11:41:23;;;;;;;16.03;11.50;;;5.30;99.90;;;;;;7391317;19;20538;-75
2022/12/10 11:44:00;;;;;;;17.37;11.30;;;5.20;99.90;;;;;;7392394;19;20158;-76
2022/12/10 11:47:01;;;;;;;16.73;11.43;;;5.20;99.90;;;;;;7391965;19;20170;-76
2022/12/10 11:49:39;;;;;;;18.87;11.47;;;5.20;99.90;;;;;;7393520;19;20147;-76
2022/12/10 11:52:20;;;;;;;19.73;11.30;;;5.10;99.90;;;;;;7393792;19;20171;-78
2022/12/10 11:55:04;;;;;;;20.20;11.87;;;5.10;99.90;;;;;;7397677;19;20161;-83
2022/12/10 11:57:48;;;;;;;21.00;12.47;;;5.10;99.90;;;;;;7394387;19;20138;-84
2022/12/10 12:00:21;;;;;;;18.20;11.13;;;5.20;99.90;;;;;;7410620;19;20138;-83
2022/12/10 12:02:55;;;;;;;19.60;11.40;;;5.20;99.90;;;;;;7404595;19;21087;-84
2022/12/10 12:05:40;;;;;;;18.90;11.03;;;5.20;99.90;;;;;;7399656;19;20562;-83
2022/12/10 12:08:17;;;;;;;18.40;11.60;;;5.20;99.90;;;;;;7396169;19;20143;-81
2022/12/10 12:11:01;;;;;;;17.43;11.13;;;5.20;99.90;;;;;;7388947;19;20134;-82
2022/12/10 12:13:54;;;;;;;17.73;11.20;;;5.00;99.90;;;;;;7392104;19;20158;-81
2022/12/10 12:16:37;;;;;;;19.73;11.13;;;5.10;99.90;;;;;;7391795;19;20592;-84
2022/12/10 12:19:14;;;;;;;16.93;10.07;;;5.20;99.90;;;;;;7399332;19;20160;-83
2022/12/10 12:21:42;;;;;;;18.00;11.60;;;5.30;99.90;;;;;;7397873;19;20607;-82
2022/12/10 12:24:36;;;;;;;16.93;10.90;;;5.30;99.90;;;;;;7396442;19;20142;-86
2022/12/10 12:27:16;;;;;;;18.53;11.70;;;5.50;99.90;;;;;;7394617;19;20532;-83
2022/12/10 12:30:11;;;;;;;15.13;10.67;;;5.40;99.90;;;;;;7394367;19;20138;-83
2022/12/10 12:32:56;;;;;;;16.40;10.00;;;5.50;99.90;;;;;;7395527;19;20147;-84
2022/12/10 12:35:41;;;;;;;15.87;9.73;;;5.40;99.90;;;;;;7397814;19;20130;-83
2022/12/10 12:38:31;;;;;;;15.20;9.80;;;5.40;99.90;;;;;;7396425;19;20123;-83
2022/12/10 12:41:26;;;;;;;21.20;11.47;;;5.50;99.90;;;;;;7394323;19;20130;-86
2022/12/10 12:44:03;;;;;;;16.87;10.07;;;5.50;99.90;;;;;;7394121;19;20208;-80
2022/12/10 12:47:02;;;;;;;16.05;11.30;;;5.40;99.90;;;;;;7390878;19;20387;-83
2022/12/10 12:49:36;;;;;;;18.27;10.77;;;5.40;99.90;;;;;;7387974;19;20146;-84
2022/12/10 12:52:21;;;;;;;16.73;10.73;;;5.50;99.90;;;;;;7389159;19;20151;-82
2022/12/10 12:54:47;;;;;;;16.03;9.90;;;5.50;99.90;;;;;;7389988;19;20170;-83
2022/12/10 12:57:34;;;;;;;14.00;9.10;;;5.40;99.90;;;;;;7389978;19;20489;-80
2022/12/10 13:00:17;;;;;;;14.63;9.27;;;5.30;99.90;;;;;;7393871;19;20131;-78
2022/12/10 13:03:18;;;;;;;16.93;9.80;;;5.30;99.90;;;;;;7392521;19;20135;-80
2022/12/10 13:05:50;;;;;;;13.27;9.00;;;5.40;99.90;;;;;;7388247;19;20521;-79
2022/12/10 13:08:28;;;;;;;13.17;8.77;;;5.40;99.90;;;;;;7391520;19;20142;-80